Terminal Aerodrome Forecast
Issued by NWS

Home | Current Version | Previous Version | Graphics & Text | Print | Product List | Glossary On
Versions: 1 2 3 4 5 6 7 8 9 10 11 12 13 14 15 16 17 18 19 20 21 22 23 24 25 26 27 28
110
FTUS43 KABR 280531
TAFATY
TAF
KATY 280531Z 2806/2906 01006KT P6SM SCT200
     FM281000 36006KT P6SM BKN050
     FM281400 02006KT P6SM SCT070
     FM282000 05009KT P6SM SCT110=

USA.gov is the U.S. government's official web portal to all federal, state and local government web resources and services.